ADDS METAR Data INFO
IDs: Format: Raw Decoded Include TAF

Data at: 1809 UTC 18 Aug 2018

KWVI 181753Z AUTO 20007KT 10SM CLR 20/14 A3008 RMK AO2 SLP186 T02000139 10200 20122 53003
KWVI 181653Z AUTO 11003KT 10SM CLR 17/13 A3007 RMK AO2 SLP184 T01720128 $
KWVI 181622Z AUTO 00000KT 10SM SCT005 16/13 A3008 RMK AO2 T01560128 $
KWVI 181553Z AUTO 02003KT 9SM OVC003 14/12 A3008 RMK AO2 SLP184 T01390122 $
KWVI 181524Z AUTO 00000KT 3SM BR OVC002 12/12 A3007 RMK AO2 T01220122 $
KWVI 181518Z AUTO 00000KT 1 1/2SM BR OVC002 13/12 A3007 RMK AO2 VIS 3/4V4 T01280122 $
KWVI 181453Z AUTO 00000KT 1/2SM FG VV002 12/12 A3007 RMK AO2 SLP183 T01220122 51004 $
KWVI 181449Z AUTO 00000KT 1/2SM FG VV002 12/12 A3007 RMK AO2 $
KWVI 181435Z AUTO 00000KT 1/4SM FG VV002 12/12 A3007 RMK AO2 T01220122 $
KWVI 181353Z AUTO 14003KT 1/2SM FG VV002 12/12 A3006 RMK AO2 SLP180 T01220122 $
KWVI 181253Z AUTO 12003KT 1/2SM FG VV002 12/12 A3006 RMK AO2 SLP179 T01220122 $
KWVI 181211Z AUTO 00000KT 1/2SM FG VV002 12/12 A3006 RMK AO2 T01220122 $
KWVI 181153Z AUTO 00000KT 1/4SM FG VV002 12/12 A3005 RMK AO2 SLP177 T01220122 10133 20122 53001 $
KWVI 181132Z AUTO 00000KT 1/4SM FG VV002 12/12 A3005 RMK AO2 T01220122 $
KWVI 181053Z AUTO 00000KT 1/2SM FG VV002 12/12 A3005 RMK AO2 SLP176 T01220122 $
KWVI 181044Z AUTO 00000KT 1/2SM FG VV002 12/12 A3005 RMK AO2 T01220122 $
KWVI 181026Z AUTO 00000KT 1/4SM FG VV002 12/12 A3005 RMK AO2 T01220122 $
KWVI 181000Z AUTO 00000KT 1/2SM FG VV002 13/13 A3005 RMK AO2 T01280128 $
KWVI 180953Z AUTO 00000KT 1SM BR VV002 13/13 A3005 RMK AO2 SLP175 T01280128 $
KWVI 180948Z AUTO 00000KT 1SM BR VV002 13/13 A3005 RMK AO2 $
KWVI 180938Z AUTO 00000KT 3/4SM BR VV002 13/13 A3005 RMK AO2 T01280128 $
KWVI 180928Z AUTO 13003KT 1SM BR VV002 13/13 A3005 RMK AO2 T01280128 $
KWVI 180853Z AUTO 00000KT 1/2SM FG VV002 13/13 A3005 RMK AO2 SLP175 T01280128 56006 $
KWVI 180834Z AUTO 00000KT 3/4SM BR VV002 13/13 A3006 RMK AO2 T01280128 $
KWVI 180827Z AUTO 00000KT 1 3/4SM BR OVC002 13/13 A3005 RMK AO2 T01280128 $
KWVI 180820Z AUTO 00000KT 1 1/4SM BR OVC002 13/13 A3005 RMK AO2 T01280128 $
KWVI 180753Z AUTO 00000KT 3/4SM BR VV002 13/13 A3006 RMK AO2 SLP177 T01330128 402440111 $
KWVI 180747Z AUTO 00000KT 1SM BR OVC003 13/13 A3006 RMK AO2 $
KWVI 180743Z AUTO 00000KT 1 3/4SM BR 13/13 A3006 RMK AO2 T01280128 $
KWVI 180701Z AUTO 00000KT 3SM BR 13/13 A3006 RMK AO2 T01280128 $
KWVI 180653Z AUTO 00000KT 3SM BR OVC005 13/13 A3006 RMK AO2 SLP179 T01280128 $
KWVI 180632Z AUTO 00000KT 8SM OVC005 13/12 A3007 RMK AO2 T01280122 $
KWVI 180602Z AUTO 00000KT 10SM 13/12 A3007 RMK AO2 T01280122 $
KWVI 180553Z AUTO 00000KT 10SM BKN006 13/12 A3007 RMK AO2 SLP182 T01280122 10183 20128 51009 $
KWVI 180532Z AUTO 00000KT 10SM FEW006 13/12 A3008 RMK AO2 T01330122 $
KWVI 180453Z AUTO 21003KT 10SM CLR 13/12 A3007 RMK AO2 SLP182 T01330122 $
KWVI 180353Z AUTO 20004KT 10SM CLR 13/12 A3005 RMK AO2 SLP176 T01330117 $
KWVI 180253Z AUTO 22003KT 10SM CLR 15/12 A3004 RMK AO2 SLP173 T01500122 55004 $
KWVI 180153Z AUTO 23005KT 10SM CLR 17/13 A3004 RMK AO2 SLP172 T01670128 $
KWVI 180053Z AUTO 22007KT 10SM CLR 18/13 A3005 RMK AO2 SLP175 T01830128 $
KWVI 172353Z AUTO 22009KT 10SM CLR 21/13 A3006 RMK AO2 SLP177 T02060133 10244 20206 56004 $
KWVI 172253Z AUTO 21008KT 10SM CLR 22/13 A3006 RMK AO2 SLP177 T02170133 $
KWVI 172153Z AUTO 21009KT 10SM CLR 23/13 A3006 RMK AO2 SLP178 T02280133 $
KWVI 172053Z AUTO 22008KT 10SM CLR 24/13 A3007 RMK AO2 SLP181 T02440133 58001 $
KWVI 171953Z AUTO 22008KT 10SM CLR 23/13 A3007 RMK AO2 SLP181 T02330133 $
KWVI 171853Z AUTO 20008KT 10SM CLR 24/14 A3007 RMK AO2 SLP182 T02390139 $
No TAF found for KWVI

KSNS 181753Z 32005KT 4SM HZ CLR 21/13 A3007 RMK AO2 SLP192 T02110133 10217 20133 50003
KSNS 181653Z 00000KT 3SM HZ FEW006 17/14 A3007 RMK AO2 SLP192 T01720139
KSNS 181643Z 32003KT 3SM HZ SCT006 17/14 A3007 RMK AO2 T01720139
KSNS 181635Z VRB03KT 3SM BR BKN006 16/14 A3007 RMK AO2 T01610139
KSNS 181614Z 00000KT 2 1/2SM BR OVC005 16/14 A3007 RMK AO2 T01560139
KSNS 181553Z 15004KT 2SM BR OVC003 15/13 A3007 RMK AO2 CIG 002V006 SLP191 T01500133
KSNS 181539Z 00000KT 1 1/4SM R31/4500VP6000FT BR OVC002 14/13 A3007 RMK AO2 T01390133
KSNS 181529Z 09003KT 3/4SM R31/3000VP6000FT BR OVC002 14/13 A3007 RMK AO2 T01390133
KSNS 181453Z 17003KT 1 1/2SM R31/4500VP6000FT BR OVC003 14/13 A3006 RMK AO2 SLP188 T01390133 52003
KSNS 181415Z 00000KT 1 1/2SM R31/6000VP6000FT BR OVC004 13/13 A3006 RMK AO2 T01330133
KSNS 181353Z 00000KT 2 1/2SM BR OVC004 14/13 A3006 RMK AO2 SLP188 T01390128
KSNS 181253Z 28003KT 4SM BR OVC004 14/13 A3005 RMK AO2 SLP185 T01390128
KSNS 181201Z 21003KT 4SM BR OVC004 14/13 A3005 RMK AO2 T01390133
KSNS 181153Z 18004KT 3SM BR OVC005 14/13 A3005 RMK AO2 SLP185 T01390133 10150 20133 53001
KSNS 181110Z AUTO 00000KT 4SM BR OVC005 14/13 A3005 RMK AO2 T01390133
KSNS 181053Z AUTO 00000KT 4SM BR OVC004 14/13 A3005 RMK AO2 SLP183 T01390133
KSNS 180953Z AUTO 00000KT 4SM BR OVC004 14/13 A3004 RMK AO2 SLP182 T01390128
KSNS 180853Z AUTO 00000KT 3SM BR OVC003 13/13 A3005 RMK AO2 SLP184 T01330128 58003
KSNS 180845Z AUTO 00000KT 3SM BR OVC003 13/13 A3005 RMK AO2 T01330133
KSNS 180837Z AUTO 00000KT 2 1/2SM BR OVC003 13/13 A3005 RMK AO2 T01330133
KSNS 180753Z AUTO 30004KT 4SM BR OVC003 14/13 A3006 RMK AO2 SLP188 T01390133 402500133
KSNS 180719Z AUTO 29006KT 5SM BR OVC004 14/13 A3006 RMK AO2 T01390133
KSNS 180653Z AUTO 33007KT 6SM BR BKN006 14/13 A3006 RMK AO2 SLP188 T01390133
KSNS 180644Z AUTO 32007KT 6SM BR BKN006 14/13 A3006 RMK AO2 T01390133
KSNS 180625Z AUTO 32007KT 7SM FEW006 14/13 A3006 RMK AO2 T01440128
KSNS 180553Z AUTO 32008KT 7SM CLR 15/13 A3006 RMK AO2 SLP188 T01500133 10206 20150 50009
KSNS 180453Z AUTO 31008KT 6SM BR CLR 15/13 A3006 RMK AO2 SLP188 T01500133
KSNS 180353Z AUTO 31010KT 6SM BR CLR 16/13 A3004 RMK AO2 SLP183 T01560133
KSNS 180253Z AUTO 32009KT 6SM HZ CLR 17/13 A3003 RMK AO2 SLP179 T01670133 55004
KSNS 180153Z 33010KT 6SM HZ CLR 18/13 A3003 RMK AO2 SLP177 T01830133
KSNS 180053Z 32011KT 6SM HZ CLR 19/13 A3004 RMK AO2 SLP181 T01940133
KSNS 172353Z 32012KT 6SM HZ CLR 20/13 A3005 RMK AO2 SLP183 T02000133 10250 20200 56004
KSNS 172253Z 31014KT 6SM HZ CLR 21/13 A3005 RMK AO2 SLP184 T02060133
KSNS 172153Z 33013KT 6SM HZ CLR 21/13 A3005 RMK AO2 SLP185 T02110133
KSNS 172053Z 32014KT 6SM HZ CLR 22/14 A3006 RMK AO2 SLP187 T02170139 55002
KSNS 171953Z 31012KT 6SM HZ CLR 22/14 A3006 RMK AO2 SLP186 T02220139
KSNS 171853Z 30008KT 5SM HZ CLR 23/14 A3006 RMK AO2 SLP187 T02330144

KSNS 181727Z 1818/1918 29005KT P6SM SKC
  FM182000 29012KT P6SM SKC
  FM190300 29008KT P6SM SCT007
  FM190500 29006KT P6SM OVC005
  FM190800 VRB04KT 3SM BR OVC003
  TEMPO 1911/1915 1SM BR


KMRY 181754Z 34005KT 8SM BKN004 15/12 A3010 RMK AO2 SLP203 T01500122 10156 20122 53008
KMRY 181712Z 32005KT 7SM BKN004 15/13 A3009 RMK AO2 T01500128
KMRY 181654Z 33004KT 10SM SCT004 16/13 A3008 RMK AO2 SLP199 T01560128
KMRY 181602Z 25004KT 10SM SCT003 15/12 A3008 RMK AO2 T01500122
KMRY 181554Z 00000KT 10SM BKN003 14/12 A3008 RMK AO2 SLP197 T01440122
KMRY 181534Z 07003KT 10SM OVC002 14/13 A3008 RMK AO2 T01390128
KMRY 181523Z 00000KT 7SM OVC001 13/12 A3007 RMK AO2 T01280122
KMRY 181515Z 00000KT 2SM BR OVC001 13/12 A3007 RMK AO2 T01280122
KMRY 181454Z 00000KT 1/2SM FG VV001 13/12 A3007 RMK AO2 SLP194 T01280122 53003 RVRNO
KMRY 181439Z 00000KT 1/2SM FG VV002 13/13 A3007 RMK AO2 T01280128 RVRNO
KMRY 181430Z 00000KT 1/4SM FG VV001 13/13 A3007 RMK AO2 T01280128 RVRNO
KMRY 181418Z VRB03KT 1/2SM FG VV002 13/13 A3007 RMK AO2 T01280128 RVRNO
KMRY 181407Z 00000KT 1/4SM FG VV001 13/12 A3007 RMK AO2 T01280122 RVRNO
KMRY 181354Z 00000KT 1/2SM FG VV002 13/12 A3007 RMK AO2 SLP193 T01280122 RVRNO
KMRY 181341Z 00000KT 2SM BR OVC002 13/13 A3006 RMK AO2 T01330128
KMRY 181329Z 00000KT 1 3/4SM BR OVC002 13/12 A3006 RMK AO2 VIS 1 1/4V3 T01280122
KMRY 181254Z 00000KT 6SM BR OVC002 13/13 A3006 RMK AO2 SLP192 T01330128
KMRY 181252Z 00000KT 6SM BR OVC002 13/12 A3006 RMK AO2
KMRY 181241Z 00000KT 6SM BR OVC001 13/13 A3006 RMK AO2 T01330128
KMRY 181229Z AUTO 00000KT 5SM BR OVC002 13/13 A3006 RMK AO2 T01330128
KMRY 181204Z AUTO 00000KT 4SM BR OVC001 13/13 A3006 RMK AO2 T01280128
KMRY 181154Z AUTO 00000KT 2SM BR OVC001 13/13 A3006 RMK AO2 SLP191 T01280128 10144 20128 53001
KMRY 181148Z AUTO 26003KT 1 3/4SM BR OVC001 13/13 A3006 RMK AO2
KMRY 181127Z AUTO 00000KT 3SM BR OVC001 13/13 A3006 RMK AO2 T01330128
KMRY 181119Z AUTO 00000KT 2SM BR OVC002 13/13 A3006 RMK AO2 T01330128
KMRY 181106Z AUTO 00000KT 2SM BR OVC001 13/13 A3005 RMK AO2 T01330128
KMRY 181054Z AUTO 00000KT 1 1/4SM BR OVC001 13/13 A3006 RMK AO2 VIS 3/4V2 1/2 SLP189 T01330128
KMRY 181036Z AUTO 00000KT 1SM BR VV001 13/13 A3005 RMK AO2 T01330128 RVRNO
KMRY 180954Z AUTO 00000KT 1/2SM FG VV001 13/13 A3006 RMK AO2 SLP189 T01330128 RVRNO
KMRY 180923Z AUTO 00000KT 1/2SM FG VV001 13/13 A3006 RMK AO2 T01330128 RVRNO
KMRY 180912Z AUTO 00000KT 1SM BR VV001 14/13 A3006 RMK AO2 T01390128 RVRNO
KMRY 180854Z AUTO 00000KT 3/4SM BR VV001 14/13 A3006 RMK AO2 SLP189 T01390128 56004 RVRNO
KMRY 180850Z AUTO 00000KT 3/4SM BR VV001 14/13 A3006 RMK AO2 RVRNO
KMRY 180837Z AUTO 29003KT 1 3/4SM BR OVC001 14/13 A3006 RMK AO2 T01390133
KMRY 180833Z AUTO 00000KT 3SM BR OVC001 14/13 A3006 RMK AO2 T01390133
KMRY 180820Z AUTO 00000KT 1 1/4SM BR OVC001 14/13 A3006 RMK AO2 T01390133
KMRY 180801Z AUTO 00000KT 3/4SM BR VV001 14/13 A3006 RMK AO2 T01390133 RVRNO
KMRY 180754Z AUTO 00000KT 1SM BR VV001 14/13 A3006 RMK AO2 SLP191 T01390128 402000139 RVRNO
KMRY 180731Z AUTO 00000KT 1 3/4SM BR OVC001 14/13 A3007 RMK AO2 VIS 1 1/4V3 T01390133
KMRY 180706Z AUTO 00000KT 2 1/2SM BR OVC001 14/13 A3007 RMK AO2 VIS 1 3/4V3 T01390133
KMRY 180654Z AUTO 00000KT 1 3/4SM BR OVC001 14/13 A3007 RMK AO2 VIS 1 1/4V3 SLP193 T01390133
KMRY 180652Z AUTO 00000KT 2SM BR OVC001 14/13 A3007 RMK AO2
KMRY 180554Z AUTO 31004KT 7SM OVC003 14/13 A3007 RMK AO2 SLP195 T01440133 10200 20144 50005
KMRY 180535Z AUTO 28004KT 7SM OVC004 14/13 A3007 RMK AO2 T01440128
KMRY 180454Z AUTO 28003KT 8SM OVC006 15/13 A3008 RMK AO2 SLP197 T01500133
KMRY 180354Z AUTO 00000KT 8SM OVC007 15/13 A3006 RMK AO2 SLP191 T01500128
KMRY 180337Z 00000KT 8SM OVC005 15/13 A3006 RMK AO2 T01500133
KMRY 180312Z 32003KT 7SM OVC004 15/13 A3006 RMK AO2 T01500133
KMRY 180254Z 31004KT 6SM BR OVC005 15/13 A3006 RMK AO2 SLP189 T01500133 55003
KMRY 180232Z 31005KT 6SM BR BKN005 16/13 A3005 RMK AO2 T01560133
KMRY 180154Z 32006KT 7SM FEW005 17/13 A3005 RMK AO2 SLP187 T01720133
KMRY 180054Z 30007KT 8SM CLR 19/13 A3005 RMK AO2 SLP188 T01890133
KMRY 172354Z 32007KT 9SM CLR 19/13 A3006 RMK AO2 SLP191 T01940133 10200 20161 58005
KMRY 172254Z 29008KT 8SM CLR 19/13 A3007 RMK AO2 SLP193 T01890133
KMRY 172154Z 31009KT 8SM FEW005 18/13 A3008 RMK AO2 SLP196 T01830133
KMRY 172054Z 29010KT 9SM FEW005 19/13 A3008 RMK AO2 SLP197 T01890133 56004
KMRY 171954Z 31008KT 9SM CLR 20/13 A3008 RMK AO2 SLP197 T02000133
KMRY 171854Z 33005KT 7SM FEW005 19/13 A3009 RMK AO2 SLP199 T01890133

KMRY 181727Z 1818/1918 30004KT P6SM FEW006
  TEMPO 1818/1819 BKN005
  FM182000 29008KT P6SM SKC
  FM190200 29004KT P6SM SCT007
  FM190400 23004KT P6SM OVC004
  FM190700 VRB04KT 3SM BR OVC003
  TEMPO 1911/1915 1/2SM FG VV002


KSJC 181753Z 00000KT 10SM FEW001 FEW010 SCT030 24/13 A3005 RMK AO2 SLP176 FU FEW001 FU FEW010 FU SCT030 T02440133 10250 20144 58001
KSJC 181653Z COR 00000KT 8SM FEW001 FEW010 SCT030 22/14 A3006 RMK AO2 SLP177 FU FEW001 FU FEW010 FU SCT030 T02170139 $
KSJC 181553Z VRB03KT 7SM FEW001 FEW010 SCT030 18/14 A3006 RMK AO2 SLP177 FU FEW001 FU FEW010 FU SCT030 T01830144 $
KSJC 181453Z 00000KT 8SM FEW001 FEW010 17/14 A3006 RMK AO2 SLP177 FU FEW001 FU FEW010 T01670139 53007 $
KSJC 181353Z 00000KT 10SM FEW001 FEW010 15/13 A3005 RMK AO2 SLP174 T01500133 $
KSJC 181253Z 32004KT 7SM FEW010 15/14 A3004 RMK AO2 SLP170 T01500139 $
KSJC 181153Z AUTO 00000KT 9SM CLR 16/14 A3003 RMK AO2 SLP169 T01560144 10183 20150 53001 $
KSJC 181053Z AUTO 32004KT 8SM CLR 16/14 A3003 RMK AO2 SLP169 T01560144 $
KSJC 180953Z AUTO 33004KT 10SM CLR 16/14 A3003 RMK AO2 SLP168 T01610144 $
KSJC 180853Z AUTO 35004KT 10SM CLR 17/14 A3003 RMK AO2 SLP169 T01670139 58004 $
KSJC 180753Z AUTO 00000KT 10SM CLR 18/14 A3004 RMK AO2 SLP173 T01830144 402940150 $
KSJC 180653Z 00000KT 10SM FEW012 18/14 A3005 RMK AO2 SLP174 LAST T01830144 $
KSJC 180553Z 33004KT 10SM FEW012 18/14 A3005 RMK AO2 SLP173 T01830139 10289 20183 51015 $
KSJC 180453Z 34007KT 10SM FEW013 19/13 A3005 RMK AO2 SLP173 T01940133 $
KSJC 180353Z 33006KT 10SM FEW014 21/14 A3002 RMK AO2 SLP164 T02060139 $
KSJC 180253Z 33008KT 10SM FEW018 FEW023 22/14 A3000 RMK AO2 SLP158 T02220139 53001 $
KSJC 180153Z 34011KT 10SM CLR 24/13 A2999 RMK AO2 SLP156 T02440133 $
KSJC 180053Z 32009KT 10SM FEW030 27/14 A2999 RMK AO2 SLP154 FU FEW030 T02670139 $
KSJC 172353Z 33013KT 10SM FEW001 FEW030 28/12 A3000 RMK AO2 SLP157 FU FEW001 FU FEW030 T02830122 10294 20222 58012 $
KSJC 172253Z 32009KT 10SM FEW001 FEW030 29/13 A3001 RMK AO2 SLP160 FU FEW001 FU FEW030 T02890133 $
KSJC 172153Z 34008KT 10SM FEW001 FEW030 28/14 A3002 RMK AO2 SLP166 FU FEW001 FU FEW030 T02830144 $
KSJC 172053Z 33005KT 10SM FEW001 FEW030 28/14 A3003 RMK AO2 SLP168 FU FEW001 FU FEW030 T02780139 58013 $
KSJC 171953Z 30008KT 10SM CLR 26/14 A3005 RMK AO2 SLP174 T02610139 $
KSJC 171853Z VRB05KT 8SM CLR 24/14 A3006 RMK AO2 SLP177 T02440144 $

KSJC 181727Z 1818/1918 VRB04KT P6SM SKC
  FM182000 32010KT P6SM SKC
  FM190400 31005KT P6SM SKC
  FM190900 VRB04KT P6SM FEW015


KSFO 181756Z 32009KT 10SM FEW009 19/12 A3006 RMK AO2 SLP180 T01890117 10194 20111 52003
KSFO 181656Z 33005KT 10SM FEW200 18/13 A3006 RMK AO2 SLP178 T01780128 $
KSFO 181556Z 00000KT 10SM FEW200 16/12 A3006 RMK AO2 SLP179 T01610117 $
KSFO 181456Z 00000KT 10SM FEW005 14/11 A3005 RMK AO2 SLP177 T01390111 53008 $
KSFO 181356Z 28006KT 10SM FEW004 11/11 A3005 RMK AO2 SLP174 T01110106 $
KSFO 181256Z 29006KT 10SM FEW002 FEW200 12/10 A3003 RMK AO2 SLP170 T01170100 $
KSFO 181156Z 29007KT 10SM FEW002 FEW040 12/11 A3003 RMK AO2 SLP169 T01170106 10133 20111 56002 $
KSFO 181056Z 29010KT 10SM FEW002 FEW040 11/11 A3003 RMK AO2 SLP169 T01110106 $
KSFO 180956Z 29007KT 10SM FEW003 FEW040 12/11 A3003 RMK AO2 SLP169 T01170106 $
KSFO 180856Z 29008KT 10SM FEW003 FEW040 13/11 A3003 RMK AO2 SLP170 T01280106 58002 $
KSFO 180756Z 28008KT 10SM FEW003 13/11 A3004 RMK AO2 SLP172 T01280106 402170128 $
KSFO 180656Z 29009KT 10SM FEW003 FEW009 13/11 A3004 RMK AO2 SLP172 T01330111 $
KSFO 180556Z 29010KT 10SM FEW002 FEW008 13/11 A3004 RMK AO2 SLP172 T01280111 10194 20128 51012 $
KSFO 180456Z 29010KT 10SM FEW002 13/12 A3004 RMK AO2 SLP172 T01330117 $
KSFO 180356Z 29013KT 10SM FEW003 14/12 A3002 RMK AO2 SLP166 T01440117 $
KSFO 180256Z 29015KT 10SM FEW004 15/12 A3000 RMK AO2 SLP160 T01500117 55000 $
KSFO 180156Z 29015KT 10SM FEW007 16/12 A3000 RMK AO2 SLP157 T01610117 $
KSFO 180056Z 30017KT 10SM FEW007 18/12 A2999 RMK AO2 PK WND 29027/0000 SLP157 T01780117 $
KSFO 172356Z 29021KT 10SM FEW009 18/12 A3001 RMK AO2 PK WND 30026/2325 SLP160 T01830117 10217 20183 56013 $
KSFO 172256Z 29021KT 10SM FEW009 19/12 A3002 RMK AO2 PK WND 29026/2247 SLP164 T01940117 $
KSFO 172156Z 31016KT 10SM FEW008 22/12 A3003 RMK AO2 SLP169 T02170122 $
KSFO 172056Z 31014KT 10SM FEW006 21/12 A3004 RMK AO2 WSHFT 1955 SLP173 T02110122 58011 $
KSFO 172015Z 30013KT 10SM FEW006 21/13 A3005 RMK AO2 WSHFT 1955 T02110128 $
KSFO 171956Z 32011KT 10SM FEW006 21/14 A3006 RMK AO2 SLP177 T02060139 $
KSFO 171856Z 03007KT 9SM FEW006 18/13 A3007 RMK AO2 SLP181 T01830133 $

KSFO 181727Z 1818/1924 33005KT P6SM FEW008
  FM182100 29016KT P6SM SKC
  FM190400 29010KT P6SM FEW008
  FM190800 29004KT P6SM FEW008
  FM191100 28006KT P6SM SCT008
  FM191700 32005KT P6SM FEW010
  FM192100 30014KT P6SM SKC


KHAF 181800Z AUTO 17006KT 8SM BKN004 14/12 A3010 RMK AO2
KHAF 181755Z AUTO 16006KT 5SM BR BKN004 13/12 A3010 RMK AO2
KHAF 181740Z AUTO 16006KT 3/4SM BR OVC003 13/12 A3010 RMK AO2
KHAF 181735Z AUTO 17006KT 1SM BR OVC003 13/12 A3010 RMK AO2 VSBY 1/2V3
KHAF 181720Z AUTO 16007KT 3/4SM BR OVC003 12/12 A3010 RMK AO2
KHAF 181715Z AUTO 16006KT 1/2SM FG OVC003 12/12 A3010 RMK AO2
KHAF 181700Z AUTO 17007KT 2SM BR OVC003 12/12 A3009 RMK AO2 VSBY 1V4
KHAF 181655Z AUTO 17007KT 1 3/4SM BR OVC003 12/12 A3009 RMK AO2 VSBY 1V4
KHAF 181640Z AUTO 17008KT 3/4SM BR OVC003 12/11 A3009 RMK AO2
KHAF 181635Z AUTO 17008KT 1SM BR OVC003 11/11 A3009 RMK AO2
KHAF 181620Z AUTO 17006KT 2 1/2SM BR OVC003 11/11 A3009 RMK AO2 VSBY 1 1/2V5
KHAF 181615Z AUTO 15006KT 3/4SM BR OVC003 11/10 A3009 RMK AO2
KHAF 181600Z AUTO 17007KT M1/4SM FG OVC002 11/11 A3010 RMK AO2
KHAF 181555Z AUTO 17006KT M1/4SM FG OVC002 11/11 A3009 RMK AO2
KHAF 181540Z AUTO 15006KT M1/4SM FG OVC002 11/11 A3009 RMK AO2
KHAF 181535Z AUTO 15005KT M1/4SM FG OVC002 10/10 A3008 RMK AO2
KHAF 181520Z AUTO 17005KT M1/4SM FG OVC003 10/10 A3008 RMK AO2
KHAF 181515Z AUTO 14004KT M1/4SM FG OVC003 10/10 A3008 RMK AO2
KHAF 181500Z AUTO 17003KT 1/2SM FG OVC003 10/10 A3007 RMK AO2
KHAF 181455Z AUTO 17004KT M1/4SM FG OVC003 10/10 A3007 RMK AO2
KHAF 181440Z AUTO 15003KT M1/4SM FG OVC003 10/10 A3007 RMK AO2
KHAF 181435Z AUTO 15004KT M1/4SM FG OVC002 10/10 A3007 RMK AO2
KHAF 181420Z AUTO 14005KT M1/4SM FG OVC002 10/10 A3007 RMK AO2
KHAF 181415Z AUTO 13004KT M1/4SM FG OVC002 10/10 A3007 RMK AO2
KHAF 181400Z AUTO 14003KT M1/4SM FG OVC002 10/10 A3006 RMK AO2
KHAF 181355Z AUTO 11003KT M1/4SM FG OVC002 10/10 A3006 RMK AO2
KHAF 181340Z AUTO 14005KT M1/4SM FG OVC002 10/10 A3006 RMK AO2
KHAF 181335Z AUTO 16005KT M1/4SM FG OVC002 10/10 A3006 RMK AO2
KHAF 181320Z AUTO 16004KT 1/4SM FG OVC002 10/10 A3006 RMK AO2
KHAF 181315Z AUTO 16004KT 1/4SM FG OVC002 10/10 A3005 RMK AO2
KHAF 181300Z AUTO 15004KT 1/4SM FG OVC002 10/10 A3005 RMK AO2
KHAF 181255Z AUTO 14005KT 1/4SM FG OVC002 10/10 A3005 RMK AO2
KHAF 181240Z AUTO 16003KT M1/4SM FG OVC002 11/10 A3006 RMK AO2
KHAF 181235Z AUTO 13004KT M1/4SM FG OVC002 11/10 A3006 RMK AO2
KHAF 181220Z AUTO 09003KT 1/4SM FG OVC002 10/10 A3006 RMK AO2
KHAF 181215Z AUTO 09004KT 1/4SM FG OVC002 10/10 A3006 RMK AO2
KHAF 181200Z AUTO 07003KT 1/4SM FG OVC002 10/10 A3006 RMK AO2
KHAF 181155Z AUTO 08003KT 1/4SM FG OVC002 10/10 A3005 RMK AO2
KHAF 181140Z AUTO 08003KT 1/2SM FG OVC002 10/10 A3006 RMK AO2
KHAF 181135Z AUTO 07004KT 1/2SM FG OVC002 10/10 A3006 RMK AO2
KHAF 181120Z AUTO 08004KT 3/4SM BR OVC002 10/10 A3006 RMK AO2
KHAF 181115Z AUTO 08004KT 3/4SM BR OVC002 10/10 A3006 RMK AO2
KHAF 181100Z AUTO 08004KT 3/4SM BR OVC002 10/10 A3006 RMK AO2
KHAF 181055Z AUTO 07004KT 3/4SM BR OVC002 11/10 A3006 RMK AO2
KHAF 181040Z AUTO 00000KT 1/2SM FG OVC002 11/10 A3006 RMK AO2
KHAF 181035Z AUTO 07003KT 1/2SM FG OVC002 11/10 A3006 RMK AO2
KHAF 181020Z AUTO 07004KT 1SM BR OVC002 10/10 A3006 RMK AO2
KHAF 181015Z AUTO 08005KT 1 1/4SM BR OVC002 11/10 A3006 RMK AO2
KHAF 181000Z AUTO 08004KT 1SM BR OVC002 10/10 A3006 RMK AO2
KHAF 180955Z AUTO 08005KT 3/4SM BR OVC002 11/11 A3006 RMK AO2
KHAF 180940Z AUTO 07003KT 3/4SM BR OVC002 11/11 A3006 RMK AO2
KHAF 180935Z AUTO 07003KT 1/2SM FG OVC002 11/11 A3006 RMK AO2
KHAF 180920Z AUTO 08003KT 3/4SM BR OVC002 11/11 A3006 RMK AO2
KHAF 180915Z AUTO 07003KT 1/2SM FG OVC002 11/11 A3006 RMK AO2
KHAF 180900Z AUTO 00000KT 3/4SM BR OVC002 12/11 A3006 RMK AO2
KHAF 180855Z AUTO 07003KT 3/4SM BR OVC003 12/11 A3006 RMK AO2
KHAF 180840Z AUTO 00000KT 1 3/4SM BR OVC003 11/11 A3006 RMK AO2
KHAF 180835Z AUTO 07004KT 1SM BR OVC002 12/12 A3006 RMK AO2
KHAF 180820Z AUTO 00000KT 3/4SM BR OVC002 12/12 A3007 RMK AO2
KHAF 180815Z AUTO 00000KT 3/4SM BR OVC002 12/12 A3007 RMK AO2
KHAF 180800Z AUTO 21003KT 1/2SM FG OVC002 12/12 A3007 RMK AO2
KHAF 180755Z AUTO 19004KT 1/2SM FG OVC002 12/12 A3007 RMK AO2
KHAF 180740Z AUTO 18004KT 1/4SM FG OVC002 12/12 A3007 RMK AO2
KHAF 180735Z AUTO 18005KT 1/4SM FG OVC002 12/12 A3007 RMK AO2
KHAF 180720Z AUTO 17004KT 1/2SM FG OVC002 12/12 A3007 RMK AO2
KHAF 180715Z AUTO 12003KT 1/2SM FG OVC002 12/12 A3007 RMK AO2
KHAF 180700Z AUTO 15003KT 1/4SM FG OVC002 12/12 A3008 RMK AO2
KHAF 180655Z AUTO 13003KT 1/2SM FG OVC002 12/12 A3007 RMK AO2
KHAF 180640Z AUTO 00000KT 1/2SM FG OVC002 12/12 A3007 RMK AO2
KHAF 180635Z AUTO 14003KT 1/2SM FG OVC002 12/12 A3007 RMK AO2
KHAF 180620Z AUTO 00000KT 1/2SM FG OVC002 12/12 A3008 RMK AO2
KHAF 180615Z AUTO 00000KT 1/2SM FG OVC002 12/12 A3008 RMK AO2
KHAF 180600Z AUTO 00000KT M1/4SM FG OVC002 13/12 A3008 RMK AO2
KHAF 180555Z AUTO 17003KT M1/4SM FG OVC002 13/12 A3008 RMK AO2
KHAF 180540Z AUTO 00000KT 1/4SM FG OVC002 13/12 A3008 RMK AO2
KHAF 180535Z AUTO 14004KT 1/4SM FG OVC002 13/12 A3008 RMK AO2
KHAF 180520Z AUTO 15004KT 3/4SM BR OVC002 13/12 A3008 RMK AO2
KHAF 180515Z AUTO 14004KT 3/4SM BR OVC002 13/13 A3008 RMK AO2
KHAF 180500Z AUTO 22003KT 3/4SM BR OVC003 13/13 A3008 RMK AO2
KHAF 180455Z AUTO 00000KT 1 1/4SM BR OVC003 13/13 A3008 RMK AO2
KHAF 180440Z AUTO 17003KT 4SM BR OVC003 13/13 A3007 RMK AO2
KHAF 180435Z AUTO 00000KT 5SM BR OVC003 13/13 A3007 RMK AO2
KHAF 180420Z AUTO 00000KT 3SM BR OVC003 13/13 A3007 RMK AO2
KHAF 180415Z AUTO 00000KT 4SM BR OVC003 13/13 A3006 RMK AO2
KHAF 180400Z AUTO 7SM OVC003 13/13 A3006 RMK AO2
KHAF 180355Z AUTO 00000KT 6SM BR OVC004 13/13 A3006 RMK AO2
KHAF 180340Z AUTO 15003KT 6SM BR OVC004 13/13 A3006 RMK AO2
KHAF 180335Z AUTO 25003KT 6SM BR OVC004 13/13 A3006 RMK AO2
KHAF 180320Z AUTO 00000KT 7SM OVC004 13/13 A3005 RMK AO2
KHAF 180315Z AUTO 00000KT 6SM BR OVC004 13/12 A3005 RMK AO2
KHAF 180300Z AUTO 00000KT 7SM OVC005 14/13 A3005 RMK AO2
KHAF 180255Z AUTO 00000KT 7SM OVC005 14/13 A3005 RMK AO2
KHAF 180240Z AUTO 26003KT 7SM OVC005 14/12 A3006 RMK AO2
KHAF 180235Z AUTO 25003KT 7SM OVC005 14/12 A3006 RMK AO2
KHAF 180220Z AUTO 22004KT 7SM OVC006 14/13 A3005 RMK AO2
KHAF 180215Z AUTO 27004KT 8SM OVC006 14/12 A3005 RMK AO2
KHAF 180200Z AUTO 28004KT 7SM OVC006 14/13 A3005 RMK AO2
KHAF 180155Z AUTO 00000KT 8SM OVC006 14/13 A3005 RMK AO2
KHAF 180140Z AUTO 29003KT 8SM OVC006 14/13 A3006 RMK AO2
KHAF 180135Z AUTO 28004KT 8SM OVC006 14/13 A3006 RMK AO2
KHAF 180120Z AUTO 30006KT 8SM BKN006 14/12 A3006 RMK AO2
KHAF 180115Z AUTO 30006KT 9SM BKN006 14/12 A3006 RMK AO2
KHAF 180100Z AUTO 32007KT 9SM SCT006 14/13 A3006 RMK AO2
KHAF 180055Z AUTO 29006KT 9SM FEW006 14/13 A3006 RMK AO2
KHAF 180040Z AUTO 29006KT 9SM FEW008 15/13 A3006 RMK AO2
KHAF 180035Z AUTO 29006KT 9SM CLR 15/13 A3006 RMK AO2
KHAF 180020Z AUTO 29006KT 8SM FEW008 15/13 A3006 RMK AO2
KHAF 180015Z AUTO 30006KT 9SM CLR 15/13 A3007 RMK AO2
KHAF 180000Z AUTO 32007KT 8SM CLR 15/13 A3007 RMK AO2
KHAF 172355Z AUTO 31007KT 7SM CLR 15/13 A3007 RMK AO2
KHAF 172340Z AUTO 29008KT 8SM CLR 15/13 A3007 RMK AO2
KHAF 172335Z AUTO 29007KT 7SM CLR 15/13 A3007 RMK AO2
KHAF 172320Z AUTO 29007KT 5SM BR CLR 15/13 A3008 RMK AO2
KHAF 172315Z AUTO 30008KT 5SM HZ CLR 15/13 A3008 RMK AO2
KHAF 172300Z AUTO 31009KT 6SM HZ CLR 15/13 A3008 RMK AO2
KHAF 172255Z AUTO 30008KT 6SM HZ CLR 16/13 A3008 RMK AO2
KHAF 172240Z AUTO 30009KT 6SM HZ CLR 15/13 A3008 RMK AO2
KHAF 172235Z AUTO 28008KT 6SM HZ CLR 15/13 A3009 RMK AO2
KHAF 172220Z AUTO 29008KT 5SM HZ CLR 15/13 A3009 RMK AO2
KHAF 172215Z AUTO 30008KT 5SM HZ CLR 15/12 A3009 RMK AO2
KHAF 172200Z AUTO 29007KT 260V320 6SM HZ CLR 16/13 A3009 RMK AO2
KHAF 172155Z AUTO 29007KT 7SM CLR 16/13 A3009 RMK AO2
KHAF 172140Z AUTO 29008KT 7SM CLR 16/13 A3009 RMK AO2
KHAF 172135Z AUTO 29007KT 7SM CLR 16/13 A3009 RMK AO2
KHAF 172120Z AUTO 28008KT 7SM CLR 15/12 A3010 RMK AO2
KHAF 172115Z AUTO 29007KT 7SM CLR 16/12 A3010 RMK AO2
KHAF 172100Z AUTO 29009KT 7SM CLR 17/13 A3009 RMK AO2
KHAF 172055Z AUTO 29009KT 7SM CLR 17/13 A3009 RMK AO2
KHAF 172040Z AUTO 29008KT 8SM CLR 16/13 A3009 RMK AO2
KHAF 172035Z AUTO 29008KT 8SM CLR 16/12 A3010 RMK AO2
KHAF 172020Z AUTO 29008KT 8SM CLR 17/13 A3010 RMK AO2
KHAF 172015Z AUTO 30009KT 8SM CLR 17/13 A3010 RMK AO2
KHAF 172000Z AUTO 30008KT 8SM CLR 17/13 A3010 RMK AO2
KHAF 171955Z AUTO 30008KT 8SM CLR 17/13 A3010 RMK AO2
KHAF 171940Z AUTO 30009KT 7SM CLR 16/13 A3010 RMK AO2
KHAF 171935Z AUTO 30009KT 7SM CLR 16/13 A3010 RMK AO2
KHAF 171920Z AUTO 30008KT 7SM CLR 16/13 A3010 RMK AO2
KHAF 171915Z AUTO 30008KT 7SM CLR 16/13 A3010 RMK AO2
KHAF 171900Z AUTO 29008KT 6SM HZ FEW008 15/13 A3010 RMK AO2
KHAF 171855Z AUTO 30008KT 7SM FEW008 15/13 A3010 RMK AO2
KHAF 171840Z AUTO 30008KT 6SM HZ FEW008 16/13 A3010 RMK AO2
KHAF 171835Z AUTO 30009KT 7SM SCT008 16/13 A3010 RMK AO2
KHAF 171820Z AUTO 30009KT 7SM 15/13 A3010 RMK AO2
KHAF 171815Z AUTO 30008KT 7SM 16/13 A3010 RMK AO2
No TAF found for KHAF